createdAt,value
2022-11-05T00:01:31.061Z,6.32
2022-11-05T00:04:16.154Z,5.78
2022-11-05T00:07:01.765Z,5.95
2022-11-05T00:09:32.355Z,8.38
2022-11-05T00:12:26.678Z,10.13
2022-11-05T00:15:12.538Z,7.68
2022-11-05T00:17:40.304Z,8.45
2022-11-05T00:20:09.586Z,9.82
2022-11-05T00:22:54.957Z,6.60
2022-11-05T00:25:22.050Z,7.10
2022-11-05T00:27:51.305Z,8.30
2022-11-05T00:30:21.013Z,6.63
2022-11-05T00:32:49.508Z,5.40
2022-11-05T00:35:17.892Z,8.57
2022-11-05T00:37:49.825Z,5.38
2022-11-05T00:40:17.316Z,5.93
2022-11-05T00:45:43.717Z,7.20
2022-11-05T00:48:40.141Z,7.80
2022-11-05T00:51:07.625Z,4.82
2022-11-05T00:53:34.624Z,6.75
2022-11-05T00:58:29.177Z,5.28
2022-11-05T01:01:00.422Z,4.90
2022-11-05T01:03:33.534Z,8.13
2022-11-05T01:06:06.588Z,4.80
2022-11-05T01:08:33.523Z,5.03
2022-11-05T01:13:29.529Z,7.78
2022-11-05T01:15:57.337Z,7.22
2022-11-05T01:18:25.282Z,6.65
2022-11-05T01:20:52.213Z,4.68
2022-11-05T01:25:46.355Z,3.73
2022-11-05T01:28:13.048Z,4.90
2022-11-05T01:30:40.056Z,4.18
2022-11-05T01:35:33.682Z,5.90
2022-11-05T01:38:00.489Z,7.70
2022-11-05T01:40:27.245Z,6.68
2022-11-05T01:42:53.972Z,7.30
2022-11-05T01:45:24.320Z,5.30
2022-11-05T01:48:06.857Z,6.45
2022-11-05T01:50:48.998Z,5.75
2022-11-05T01:53:34.467Z,6.95
2022-11-05T01:56:03.427Z,6.45
2022-11-05T01:59:08.129Z,8.02
2022-11-05T02:01:35.163Z,6.32
2022-11-05T02:04:04.896Z,5.28
2022-11-05T02:06:35.750Z,10.52
2022-11-05T02:09:36.249Z,8.68
2022-11-05T02:15:36.665Z,7.90
2022-11-05T02:18:42.453Z,5.40
2022-11-05T02:21:34.950Z,10.85
2022-11-05T02:24:23.966Z,7.30
2022-11-05T02:27:06.856Z,8.75
2022-11-05T02:29:51.622Z,10.38
2022-11-05T02:32:21.216Z,8.23
2022-11-05T02:35:12.977Z,8.88
2022-11-05T02:37:44.006Z,7.35
2022-11-05T02:40:29.137Z,8.55
2022-11-05T02:43:04.930Z,8.65
2022-11-05T02:45:37.898Z,10.30
2022-11-05T02:48:46.503Z,8.23
2022-11-05T02:51:22.411Z,9.43
2022-11-05T02:54:06.318Z,11.30
2022-11-05T02:56:35.552Z,10.25
2022-11-05T02:59:02.482Z,8.43
2022-11-05T03:04:02.121Z,12.75
2022-11-05T03:06:50.832Z,12.52
2022-11-05T03:09:39.134Z,14.93
2022-11-05T03:12:32.625Z,14.57
2022-11-05T03:15:07.988Z,15.13
2022-11-05T03:17:57.469Z,12.45
2022-11-05T03:20:48.697Z,13.63
2022-11-05T03:23:21.063Z,16.80
2022-11-05T03:25:53.557Z,14.88
2022-11-05T03:28:24.336Z,15.68
2022-11-05T03:30:52.566Z,19.55
2022-11-05T03:33:24.524Z,16.63
2022-11-05T03:36:00.400Z,18.23
2022-11-05T03:38:40.311Z,21.48
2022-11-05T03:41:10.050Z,21.83
2022-11-05T03:43:41.775Z,22.52
2022-11-05T03:46:13.516Z,28.73
2022-11-05T03:48:47.213Z,25.23
2022-11-05T03:51:39.968Z,25.48
2022-11-05T03:54:07.260Z,23.52
2022-11-05T03:56:44.361Z,22.85
2022-11-05T03:59:11.934Z,23.88
2022-11-05T04:01:39.435Z,21.35
2022-11-05T04:04:07.369Z,20.83
2022-11-05T04:06:52.847Z,20.95
2022-11-05T04:09:38.457Z,20.73
2022-11-05T04:12:24.414Z,23.23
2022-11-05T04:14:51.139Z,28.38
2022-11-05T04:17:17.901Z,18.67
2022-11-05T04:20:04.275Z,23.63
2022-11-05T04:22:51.442Z,19.83
2022-11-05T04:25:19.840Z,21.73
2022-11-05T04:27:47.040Z,21.77
2022-11-05T04:30:19.186Z,21.17
2022-11-05T04:33:18.563Z,20.13
2022-11-05T04:35:47.387Z,25.98
2022-11-05T04:38:16.717Z,25.65
2022-11-05T04:40:44.510Z,22.38
2022-11-05T04:43:16.324Z,26.35
2022-11-05T04:45:43.487Z,26.48
2022-11-05T04:48:10.682Z,23.10
2022-11-05T04:50:37.676Z,23.75
2022-11-05T04:55:31.241Z,25.52
2022-11-05T04:57:58.053Z,28.20
2022-11-05T05:00:24.917Z,23.70
2022-11-05T05:02:51.804Z,24.02
2022-11-05T05:05:18.757Z,22.48
2022-11-05T05:07:45.859Z,19.45
2022-11-05T05:12:39.807Z,18.45
2022-11-05T05:15:06.994Z,22.58
2022-11-05T05:17:34.063Z,23.13
2022-11-05T05:20:19.231Z,23.35
2022-11-05T05:22:53.043Z,18.23
2022-11-05T05:25:20.159Z,19.38
2022-11-05T05:27:46.957Z,18.83
2022-11-05T05:30:13.742Z,18.38
2022-11-05T05:32:40.488Z,19.73
2022-11-05T05:35:07.569Z,19.50
2022-11-05T05:37:34.303Z,17.67
2022-11-05T05:40:01.074Z,18.25
2022-11-05T05:42:27.730Z,15.63
2022-11-05T05:44:54.473Z,14.68
2022-11-05T05:47:21.231Z,15.02
2022-11-05T05:49:47.954Z,16.15
2022-11-05T05:52:14.667Z,14.02
2022-11-05T05:54:42.927Z,13.07
2022-11-05T05:57:10.737Z,12.52
2022-11-05T05:59:37.388Z,13.82
2022-11-05T06:02:04.207Z,13.40
2022-11-05T06:04:30.990Z,15.63
2022-11-05T06:06:57.692Z,12.02
2022-11-05T06:09:24.799Z,13.82
2022-11-05T06:11:51.481Z,15.52
2022-11-05T06:14:18.236Z,12.27
2022-11-05T06:16:44.995Z,13.10
2022-11-05T06:19:11.746Z,13.63
2022-11-05T06:21:38.563Z,13.57
2022-11-05T06:24:05.610Z,14.98
2022-11-05T06:26:32.378Z,12.55
2022-11-05T06:28:59.110Z,11.00
2022-11-05T06:31:25.873Z,11.50
2022-11-05T06:33:52.577Z,14.55
2022-11-05T06:36:20.400Z,11.73
2022-11-05T06:38:47.253Z,12.45
2022-11-05T06:41:14.136Z,16.48
2022-11-05T06:43:40.905Z,13.75
2022-11-05T06:46:09.277Z,14.98
2022-11-05T06:48:36.072Z,13.43
2022-11-05T06:51:03.452Z,16.33
2022-11-05T06:53:31.325Z,13.73
2022-11-05T06:55:58.018Z,16.70
2022-11-05T06:58:24.849Z,13.00
2022-11-05T07:00:51.581Z,11.60
2022-11-05T07:03:18.338Z,13.60
2022-11-05T07:05:49.887Z,15.32
2022-11-05T07:08:17.338Z,14.70
2022-11-05T07:10:44.130Z,16.83
2022-11-05T07:13:11.265Z,13.88
2022-11-05T07:15:38.514Z,14.98
2022-11-05T07:20:34.723Z,15.25
2022-11-05T07:23:03.711Z,19.27
2022-11-05T07:25:32.550Z,17.92
2022-11-05T07:27:59.391Z,19.60
2022-11-05T07:30:26.959Z,19.45
2022-11-05T07:32:54.839Z,13.95
2022-11-05T07:35:22.140Z,14.65
2022-11-05T07:37:51.072Z,18.38
2022-11-05T07:40:21.687Z,14.57
2022-11-05T07:42:51.264Z,16.45
2022-11-05T07:45:18.786Z,17.20
2022-11-05T07:47:57.181Z,17.38
2022-11-05T07:50:26.560Z,19.33
2022-11-05T07:52:53.388Z,20.35
2022-11-05T07:55:20.919Z,16.90
2022-11-05T07:57:50.596Z,18.27
2022-11-05T08:00:20.248Z,17.50
2022-11-05T08:03:00.927Z,16.95
2022-11-05T08:05:34.356Z,22.35
2022-11-05T08:08:01.092Z,16.17
2022-11-05T08:10:28.194Z,16.95
2022-11-05T08:12:56.030Z,15.93
2022-11-05T08:15:23.796Z,13.52
2022-11-05T08:17:57.215Z,15.40
2022-11-05T08:20:23.910Z,15.40
2022-11-05T08:22:50.659Z,13.55
2022-11-05T08:25:17.471Z,14.25
2022-11-05T08:27:45.602Z,15.65
2022-11-05T08:30:12.719Z,18.10
2022-11-05T08:32:39.462Z,14.43
2022-11-05T08:35:06.660Z,15.45
2022-11-05T08:37:33.380Z,17.13
2022-11-05T08:40:00.188Z,12.23
2022-11-05T08:42:27.071Z,15.23
2022-11-05T08:47:20.556Z,13.98
2022-11-05T08:52:13.976Z,13.55
2022-11-05T08:57:07.435Z,8.73
2022-11-05T09:02:00.958Z,10.93
2022-11-05T09:04:27.881Z,11.38
2022-11-05T09:06:54.548Z,7.35
2022-11-05T09:09:46.805Z,8.57
2022-11-05T09:12:13.464Z,8.88
2022-11-05T09:14:40.158Z,8.32
2022-11-05T09:17:17.724Z,9.05
2022-11-05T09:19:44.829Z,10.95
2022-11-05T09:22:12.832Z,8.60
2022-11-05T09:24:40.508Z,8.35
2022-11-05T09:27:13.324Z,9.73
2022-11-05T09:29:40.845Z,7.82
2022-11-05T09:32:08.469Z,7.95
2022-11-05T09:34:35.820Z,8.10
2022-11-05T09:37:03.390Z,7.15
2022-11-05T09:39:30.167Z,7.20
2022-11-05T09:42:02.686Z,10.30
2022-11-05T09:44:43.353Z,8.32
2022-11-05T09:47:18.930Z,7.07
2022-11-05T09:49:51.641Z,8.70
2022-11-05T09:52:29.730Z,8.00
2022-11-05T09:54:57.207Z,5.63
2022-11-05T09:57:43.937Z,6.55
2022-11-05T10:00:16.865Z,6.50
2022-11-05T10:02:47.967Z,6.28
2022-11-05T10:05:19.010Z,7.43
2022-11-05T10:07:49.936Z,4.63
2022-11-05T10:10:41.122Z,5.00
2022-11-05T10:13:30.257Z,4.63
2022-11-05T10:16:07.806Z,4.72
2022-11-05T10:18:39.449Z,4.43
2022-11-05T10:21:07.196Z,6.43
2022-11-05T10:23:34.361Z,4.53
2022-11-05T10:26:05.746Z,5.38
2022-11-05T10:28:34.036Z,5.10
2022-11-05T10:31:07.827Z,3.53
2022-11-05T10:33:44.560Z,5.07
2022-11-05T10:36:23.469Z,5.57
2022-11-05T10:38:51.513Z,5.43
2022-11-05T10:41:33.272Z,3.22
2022-11-05T10:44:18.835Z,4.55
2022-11-05T10:46:57.826Z,4.95
2022-11-05T10:49:50.462Z,3.97
2022-11-05T10:52:22.293Z,4.85
2022-11-05T10:54:51.953Z,4.90
2022-11-05T10:57:37.839Z,3.00
2022-11-05T11:00:16.835Z,5.22
2022-11-05T11:02:47.322Z,4.57
2022-11-05T11:05:23.054Z,4.82
2022-11-05T11:08:02.533Z,6.27
2022-11-05T11:10:32.693Z,5.65
2022-11-05T11:12:59.618Z,5.80
2022-11-05T11:15:29.374Z,5.95
2022-11-05T11:17:56.661Z,5.80
2022-11-05T11:20:27.229Z,4.88
2022-11-05T11:23:12.140Z,5.13
2022-11-05T11:25:53.901Z,6.28
2022-11-05T11:28:24.464Z,6.60
2022-11-05T11:30:57.031Z,4.18
2022-11-05T11:33:27.681Z,5.43
2022-11-05T11:35:55.130Z,7.07
2022-11-05T11:41:42.775Z,6.95
2022-11-05T11:44:20.014Z,5.82
2022-11-05T11:46:52.172Z,6.85
2022-11-05T11:49:49.756Z,5.70
2022-11-05T11:52:32.372Z,6.60
2022-11-05T11:55:28.579Z,6.82
2022-11-05T11:58:07.506Z,7.55
2022-11-05T12:00:42.335Z,6.15
2022-11-05T12:03:21.175Z,4.68
2022-11-05T12:06:09.724Z,4.97
2022-11-05T12:08:45.288Z,4.50
2022-11-05T12:11:32.041Z,3.75
2022-11-05T12:14:20.953Z,7.03
2022-11-05T12:17:02.020Z,5.95
2022-11-05T12:19:39.606Z,3.90
2022-11-05T12:22:34.665Z,6.45
2022-11-05T12:25:13.821Z,8.18
2022-11-05T12:27:49.464Z,5.38
2022-11-05T12:30:21.395Z,4.93
2022-11-05T12:33:06.819Z,5.85
2022-11-05T12:35:47.442Z,4.38
2022-11-05T12:38:14.931Z,4.35
2022-11-05T12:40:41.620Z,5.35
2022-11-05T12:43:14.595Z,6.18
2022-11-05T12:45:47.292Z,3.83
2022-11-05T12:48:50.856Z,5.50
2022-11-05T12:51:45.520Z,4.93
2022-11-05T12:54:21.230Z,7.75
2022-11-05T12:56:53.033Z,7.53
2022-11-05T12:59:33.615Z,4.57
2022-11-05T13:02:12.741Z,7.00
2022-11-05T13:04:57.613Z,4.50
2022-11-05T13:07:34.601Z,5.20
2022-11-05T13:10:13.402Z,5.30
2022-11-05T13:12:42.502Z,9.32
2022-11-05T13:15:29.173Z,4.03
2022-11-05T13:18:00.177Z,7.13
2022-11-05T13:20:31.756Z,7.38
2022-11-05T13:23:12.843Z,5.90
2022-11-05T13:25:49.277Z,6.95
2022-11-05T13:28:24.769Z,3.95
2022-11-05T13:31:01.536Z,6.03
2022-11-05T13:33:42.545Z,4.30
2022-11-05T13:36:40.084Z,3.90
2022-11-05T13:39:13.158Z,4.95
2022-11-05T13:41:55.948Z,6.45
2022-11-05T13:44:43.951Z,2.63
2022-11-05T13:47:43.265Z,5.75
2022-11-05T13:50:16.010Z,4.82
2022-11-05T13:53:06.342Z,4.75
2022-11-05T13:56:12.060Z,3.38
2022-11-05T13:58:41.698Z,3.97
2022-11-05T14:01:29.310Z,3.60
2022-11-05T14:03:56.703Z,4.68
2022-11-05T14:06:42.105Z,3.65
2022-11-05T14:09:11.765Z,4.82
2022-11-05T14:11:43.188Z,5.85
2022-11-05T14:14:23.185Z,7.35
2022-11-05T14:16:52.373Z,3.30
2022-11-05T14:19:19.198Z,4.68
2022-11-05T14:24:21.478Z,2.13
2022-11-05T14:27:00.574Z,4.40
2022-11-05T14:29:48.860Z,3.50
2022-11-05T14:32:21.681Z,3.08
2022-11-05T14:35:02.185Z,4.55
2022-11-05T14:37:40.295Z,4.95
2022-11-05T14:40:22.379Z,4.03
2022-11-05T14:42:54.595Z,3.83
2022-11-05T14:45:33.360Z,3.65
2022-11-05T14:48:27.787Z,3.33
2022-11-05T14:50:55.349Z,2.42
2022-11-05T14:53:39.028Z,2.85
2022-11-05T14:56:13.262Z,3.70
2022-11-05T14:58:42.103Z,5.03
2022-11-05T15:01:31.860Z,4.45
2022-11-05T15:04:18.919Z,4.07
2022-11-05T15:07:08.875Z,3.45
2022-11-05T15:09:53.660Z,3.50
2022-11-05T15:12:42.520Z,2.20
2022-11-05T15:15:23.766Z,4.38
2022-11-05T15:18:01.838Z,4.35
2022-11-05T15:20:35.843Z,2.42
2022-11-05T15:23:13.277Z,5.43
2022-11-05T15:25:53.435Z,3.63
2022-11-05T15:28:40.986Z,3.72
2022-11-05T15:31:13.929Z,4.45
2022-11-05T15:33:42.717Z,5.60
2022-11-05T15:36:30.642Z,3.13
2022-11-05T15:41:46.454Z,5.45
2022-11-05T15:44:40.862Z,6.40
2022-11-05T15:47:23.358Z,5.63
2022-11-05T15:49:58.502Z,6.30
2022-11-05T15:52:34.631Z,5.88
2022-11-05T15:55:09.903Z,5.00
2022-11-05T15:57:40.267Z,4.07
2022-11-05T16:00:23.291Z,9.40
2022-11-05T16:03:01.527Z,5.22
2022-11-05T16:05:32.374Z,7.28
2022-11-05T16:08:00.159Z,4.95
2022-11-05T16:10:33.649Z,6.25
2022-11-05T16:13:38.826Z,4.60
2022-11-05T16:16:22.361Z,6.78
2022-11-05T16:18:49.139Z,7.72
2022-11-05T16:21:18.891Z,5.55
2022-11-05T16:23:52.849Z,5.65
2022-11-05T16:29:32.187Z,5.20
2022-11-05T16:32:01.744Z,3.97
2022-11-05T16:34:36.998Z,5.60
2022-11-05T16:37:05.593Z,7.65
2022-11-05T16:39:32.837Z,8.13
2022-11-05T16:41:59.837Z,7.22
2022-11-05T16:46:53.308Z,8.75
2022-11-05T16:49:20.986Z,4.80
2022-11-05T16:51:47.696Z,7.72
2022-11-05T16:54:14.341Z,7.43
2022-11-05T16:56:42.723Z,5.18
2022-11-05T16:59:12.474Z,9.82
2022-11-05T17:01:41.907Z,7.78
2022-11-05T17:04:11.758Z,10.00
2022-11-05T17:06:38.402Z,10.93
2022-11-05T17:09:05.097Z,9.30
2022-11-05T17:11:31.907Z,10.57
2022-11-05T17:13:58.580Z,9.25
2022-11-05T17:16:26.683Z,12.43
2022-11-05T17:18:53.355Z,13.75
2022-11-05T17:21:20.176Z,10.55
2022-11-05T17:23:46.896Z,10.40
2022-11-05T17:26:14.164Z,11.50
2022-11-05T17:28:41.107Z,12.55
2022-11-05T17:33:35.638Z,13.43
2022-11-05T17:36:10.243Z,14.27
2022-11-05T17:38:37.213Z,14.25
2022-11-05T17:43:36.635Z,12.00
2022-11-05T17:46:07.671Z,14.45
2022-11-05T17:48:34.674Z,18.05
2022-11-05T17:53:28.044Z,21.17
2022-11-05T17:55:54.821Z,20.10
2022-11-05T17:58:21.499Z,18.55
2022-11-05T18:00:48.526Z,21.13
2022-11-05T18:05:42.527Z,19.63
2022-11-05T18:08:09.746Z,16.27
2022-11-05T18:10:38.006Z,22.88
2022-11-05T18:13:04.763Z,18.48
2022-11-05T18:15:31.658Z,17.77
2022-11-05T18:17:58.475Z,18.25
2022-11-05T18:20:25.359Z,17.60
2022-11-05T18:22:52.104Z,19.33
2022-11-05T18:25:19.096Z,19.60
2022-11-05T18:27:45.901Z,18.65
2022-11-05T18:30:15.334Z,24.77
2022-11-05T18:32:43.745Z,22.60
2022-11-05T18:35:10.545Z,18.75
2022-11-05T18:37:38.874Z,18.20
2022-11-05T18:40:06.951Z,15.52
2022-11-05T18:42:33.785Z,22.63
2022-11-05T18:45:00.566Z,15.50
2022-11-05T18:47:27.267Z,20.90
2022-11-05T18:49:54.004Z,19.05
2022-11-05T18:52:20.715Z,17.98
2022-11-05T18:54:47.427Z,16.70
2022-11-05T18:57:14.137Z,15.98
2022-11-05T18:59:42.126Z,18.85
2022-11-05T19:02:10.964Z,19.13
2022-11-05T19:04:37.910Z,14.63
2022-11-05T19:07:05.911Z,16.27
2022-11-05T19:09:37.081Z,18.92
2022-11-05T19:12:05.581Z,19.42
2022-11-05T19:14:32.553Z,20.90
2022-11-05T19:19:26.516Z,15.15
2022-11-05T19:21:53.458Z,18.75
2022-11-05T19:24:20.224Z,15.88
2022-11-05T19:26:47.521Z,18.95
2022-11-05T19:29:14.355Z,20.75
2022-11-05T19:31:41.173Z,17.83
2022-11-05T19:34:08.261Z,19.30
2022-11-05T19:39:06.295Z,15.15
2022-11-05T19:41:33.155Z,17.38
2022-11-05T19:44:01.560Z,16.80
2022-11-05T19:46:29.580Z,18.85
2022-11-05T19:48:56.540Z,20.58
2022-11-05T19:51:25.830Z,16.42
2022-11-05T19:53:55.088Z,17.10
2022-11-05T19:56:24.698Z,20.20
2022-11-05T19:58:53.016Z,19.35
2022-11-05T20:01:21.048Z,19.98
2022-11-05T20:03:48.383Z,24.33
2022-11-05T20:06:18.078Z,19.58
2022-11-05T20:09:06.983Z,17.30
2022-11-05T20:11:32.071Z,16.55
2022-11-05T20:16:29.031Z,21.65
2022-11-05T20:18:57.135Z,20.63
2022-11-05T20:21:23.840Z,22.35
2022-11-05T20:23:50.783Z,17.63
2022-11-05T20:26:17.520Z,20.05
2022-11-05T20:28:44.302Z,16.00
2022-11-05T20:31:14.099Z,18.65
2022-11-05T20:33:41.578Z,24.88
2022-11-05T20:36:14.790Z,19.83
2022-11-05T20:38:41.947Z,16.85
2022-11-05T20:41:10.598Z,23.23
2022-11-05T20:43:38.520Z,18.70
2022-11-05T20:46:05.224Z,19.23
2022-11-05T20:48:35.523Z,16.42
2022-11-05T20:51:07.752Z,17.00
2022-11-05T20:53:34.849Z,19.58
2022-11-05T20:58:35.758Z,20.75
2022-11-05T21:01:04.150Z,21.20
2022-11-05T21:03:31.398Z,22.75
2022-11-05T21:08:27.783Z,20.02
2022-11-05T21:10:55.750Z,18.88
2022-11-05T21:13:23.623Z,25.27
2022-11-05T21:15:52.356Z,21.80
2022-11-05T21:18:20.884Z,20.63
2022-11-05T21:20:47.846Z,22.23
2022-11-05T21:25:42.566Z,18.00
2022-11-05T21:28:11.216Z,15.93
2022-11-05T21:30:41.573Z,19.88
2022-11-05T21:33:09.314Z,19.27
2022-11-05T21:35:40.925Z,17.40
2022-11-05T21:38:07.896Z,23.42
2022-11-05T21:40:34.671Z,21.02
2022-11-05T21:43:01.582Z,16.92
2022-11-05T21:45:28.399Z,18.27
2022-11-05T21:47:56.516Z,19.33
2022-11-05T21:50:42.626Z,17.35
2022-11-05T21:53:35.128Z,16.85
2022-11-05T21:56:35.337Z,18.13
2022-11-05T21:59:21.170Z,18.25
2022-11-05T22:01:48.151Z,20.23
2022-11-05T22:04:15.961Z,16.63
2022-11-05T22:06:42.756Z,19.58
2022-11-05T22:09:09.670Z,17.52
2022-11-05T22:11:37.364Z,18.10
2022-11-05T22:14:04.469Z,16.05
2022-11-05T22:16:31.257Z,19.35
2022-11-05T22:18:58.777Z,19.60
2022-11-05T22:21:25.645Z,14.00
2022-11-05T22:23:53.017Z,19.38
2022-11-05T22:26:20.574Z,13.38
2022-11-05T22:28:47.405Z,11.55
2022-11-05T22:31:15.611Z,15.82
2022-11-05T22:33:42.983Z,17.83
2022-11-05T22:36:10.976Z,15.68
2022-11-05T22:38:38.363Z,14.05
2022-11-05T22:41:14.569Z,16.92
2022-11-05T22:43:41.389Z,11.38
2022-11-05T22:46:19.777Z,21.60
2022-11-05T22:48:46.985Z,16.95
2022-11-05T22:51:34.248Z,16.75
2022-11-05T22:54:01.922Z,19.77
2022-11-05T22:56:32.070Z,16.27
2022-11-05T22:58:59.540Z,15.88
2022-11-05T23:01:27.151Z,13.63
2022-11-05T23:03:56.321Z,15.93
2022-11-05T23:06:44.163Z,12.73
2022-11-05T23:09:47.156Z,15.55
2022-11-05T23:12:26.116Z,14.23
2022-11-05T23:14:54.362Z,18.02
2022-11-05T23:17:39.740Z,16.10
2022-11-05T23:20:27.289Z,13.02
2022-11-05T23:23:12.579Z,17.17
2022-11-05T23:25:40.292Z,24.20
2022-11-05T23:28:10.232Z,13.35
2022-11-05T23:31:01.473Z,18.65
2022-11-05T23:33:29.083Z,16.27
2022-11-05T23:36:14.922Z,18.48
2022-11-05T23:38:41.619Z,17.95
2022-11-05T23:41:27.100Z,14.75
2022-11-05T23:44:12.408Z,16.58
2022-11-05T23:46:57.887Z,10.57
2022-11-05T23:49:27.482Z,16.05
2022-11-05T23:51:54.492Z,13.15
2022-11-05T23:56:49.015Z,14.60
2022-11-05T23:59:15.835Z,14.63
